createdAt,value
2022-08-03T00:00:28.274Z,0
2022-08-03T00:01:37.446Z,0
2022-08-03T00:02:46.618Z,0
2022-08-03T00:03:55.797Z,0
2022-08-03T00:05:03.989Z,0
2022-08-03T00:06:12.174Z,0
2022-08-03T00:07:20.367Z,0
2022-08-03T00:08:28.563Z,0
2022-08-03T00:09:37.723Z,0
2022-08-03T00:10:46.906Z,0
2022-08-03T00:11:56.062Z,0
2022-08-03T00:13:05.245Z,0
2022-08-03T00:14:14.419Z,0
2022-08-03T00:15:22.609Z,0
2022-08-03T00:16:31.780Z,0
2022-08-03T00:17:40.955Z,0
2022-08-03T00:18:50.137Z,0
2022-08-03T00:19:59.304Z,0
2022-08-03T00:21:08.478Z,0
2022-08-03T00:22:17.647Z,0
2022-08-03T00:23:26.816Z,0
2022-08-03T00:24:36.002Z,0
2022-08-03T00:25:45.162Z,0
2022-08-03T00:26:54.337Z,0
2022-08-03T00:28:03.512Z,0
2022-08-03T00:29:12.675Z,0
2022-08-03T00:30:20.878Z,0
2022-08-03T00:31:30.054Z,0
2022-08-03T00:32:39.229Z,0
2022-08-03T00:33:48.384Z,0
2022-08-03T00:34:57.568Z,0
2022-08-03T00:36:06.730Z,0
2022-08-03T00:37:15.918Z,0
2022-08-03T00:38:25.081Z,0
2022-08-03T00:39:34.250Z,0
2022-08-03T00:40:43.423Z,0
2022-08-03T00:41:52.604Z,0
2022-08-03T00:43:01.769Z,0
2022-08-03T00:44:10.941Z,0
2022-08-03T00:45:19.131Z,0
2022-08-03T00:46:28.311Z,0
2022-08-03T00:47:37.495Z,0
2022-08-03T00:48:46.645Z,0
2022-08-03T00:49:55.813Z,0
2022-08-03T00:51:05.006Z,0
2022-08-03T00:52:14.171Z,0
2022-08-03T00:53:23.338Z,0
2022-08-03T00:54:32.517Z,0
2022-08-03T00:55:41.680Z,0
2022-08-03T00:56:50.850Z,0
2022-08-03T00:58:00.032Z,0
2022-08-03T00:59:09.199Z,0
2022-08-03T01:00:17.383Z,0
2022-08-03T01:01:26.558Z,0
2022-08-03T01:02:35.744Z,0
2022-08-03T01:03:44.916Z,0
2022-08-03T01:04:54.088Z,0
2022-08-03T01:06:03.257Z,0
2022-08-03T01:07:12.420Z,0
2022-08-03T01:08:21.610Z,0
2022-08-03T01:09:30.774Z,0
2022-08-03T01:10:39.961Z,0
2022-08-03T01:11:49.114Z,0
2022-08-03T01:12:58.302Z,0
2022-08-03T01:14:07.470Z,0
2022-08-03T01:15:15.657Z,0
2022-08-03T01:16:24.832Z,0
2022-08-03T01:17:33.998Z,0
2022-08-03T01:18:43.164Z,0
2022-08-03T01:19:52.336Z,0
2022-08-03T01:21:01.514Z,0
2022-08-03T01:22:10.685Z,0
2022-08-03T01:23:19.880Z,0
2022-08-03T01:24:29.036Z,0
2022-08-03T01:25:38.214Z,0
2022-08-03T01:26:47.385Z,0
2022-08-03T01:27:56.556Z,0
2022-08-03T01:29:05.726Z,0
2022-08-03T01:30:13.915Z,0
2022-08-03T01:31:23.093Z,0
2022-08-03T01:32:32.263Z,0
2022-08-03T01:33:41.436Z,0
2022-08-03T01:34:50.606Z,0
2022-08-03T01:35:59.771Z,0
2022-08-03T01:37:08.942Z,0
2022-08-03T01:38:18.128Z,0
2022-08-03T01:39:26.319Z,0
2022-08-03T01:40:34.505Z,0
2022-08-03T01:41:43.675Z,0
2022-08-03T01:42:52.845Z,0
2022-08-03T01:44:01.048Z,0
2022-08-03T01:45:09.223Z,0
2022-08-03T01:46:18.404Z,0
2022-08-03T01:47:27.578Z,0
2022-08-03T01:48:36.769Z,0
2022-08-03T01:49:45.929Z,0
2022-08-03T01:50:55.089Z,0
2022-08-03T01:52:04.277Z,0
2022-08-03T01:53:13.437Z,0
2022-08-03T01:54:22.614Z,0
2022-08-03T01:55:31.794Z,0
2022-08-03T01:56:40.965Z,0
2022-08-03T01:57:50.131Z,0
2022-08-03T01:58:59.301Z,0
2022-08-03T02:00:08.485Z,0
2022-08-03T02:01:16.657Z,0
2022-08-03T02:02:25.840Z,0
2022-08-03T02:03:35.011Z,0
2022-08-03T02:04:44.184Z,0
2022-08-03T02:05:53.358Z,0
2022-08-03T02:07:02.521Z,0
2022-08-03T02:08:11.704Z,0
2022-08-03T02:09:20.873Z,0
2022-08-03T02:10:30.043Z,0
2022-08-03T02:11:39.221Z,0
2022-08-03T02:12:48.401Z,0
2022-08-03T02:13:56.579Z,0
2022-08-03T02:15:04.795Z,0
2022-08-03T02:16:13.943Z,0
2022-08-03T02:17:23.114Z,0
2022-08-03T02:18:32.302Z,0
2022-08-03T02:19:40.488Z,0
2022-08-03T02:20:48.670Z,0
2022-08-03T02:21:57.845Z,0
2022-08-03T02:23:07.021Z,0
2022-08-03T02:24:16.192Z,0
2022-08-03T02:25:25.361Z,0
2022-08-03T02:26:34.534Z,0
2022-08-03T02:27:43.704Z,0
2022-08-03T02:28:52.877Z,0
2022-08-03T02:30:02.059Z,0
2022-08-03T02:31:11.227Z,0
2022-08-03T02:32:20.411Z,0
2022-08-03T02:33:29.576Z,0
2022-08-03T02:34:38.748Z,0
2022-08-03T02:35:46.933Z,0
2022-08-03T02:36:56.100Z,0
2022-08-03T02:38:05.285Z,0
2022-08-03T02:39:14.458Z,0
2022-08-03T02:40:23.628Z,0
2022-08-03T02:41:32.815Z,0
2022-08-03T02:42:41.969Z,0
2022-08-03T02:43:50.171Z,0
2022-08-03T02:44:58.351Z,0
2022-08-03T02:46:07.539Z,0
2022-08-03T02:47:16.703Z,0
2022-08-03T02:48:24.883Z,0
2022-08-03T02:49:33.078Z,0
2022-08-03T02:50:42.257Z,0
2022-08-03T02:51:51.426Z,0
2022-08-03T02:53:00.599Z,0
2022-08-03T02:54:09.765Z,0
2022-08-03T02:55:18.945Z,0
2022-08-03T02:56:28.125Z,0
2022-08-03T02:57:37.304Z,0
2022-08-03T02:58:46.462Z,0
2022-08-03T02:59:55.634Z,0
2022-08-03T03:01:04.815Z,0
2022-08-03T03:02:13.983Z,0
2022-08-03T03:03:23.156Z,0
2022-08-03T03:04:31.353Z,0
2022-08-03T03:05:40.519Z,0
2022-08-03T03:06:49.719Z,0
2022-08-03T03:07:58.853Z,0
2022-08-03T03:09:08.033Z,0
2022-08-03T03:10:17.214Z,0
2022-08-03T03:11:26.375Z,3
2022-08-03T03:12:34.578Z,3
2022-08-03T03:13:42.765Z,3
2022-08-03T03:14:51.934Z,3
2022-08-03T03:16:01.103Z,4
2022-08-03T03:17:10.287Z,0
2022-08-03T03:18:19.458Z,0
2022-08-03T03:19:27.663Z,4
2022-08-03T03:20:35.841Z,4
2022-08-03T03:21:45.001Z,9
2022-08-03T03:22:54.177Z,1
2022-08-03T03:24:03.342Z,9
2022-08-03T03:25:12.526Z,5
2022-08-03T03:26:21.694Z,3
2022-08-03T03:27:30.865Z,3
2022-08-03T03:28:40.063Z,6
2022-08-03T03:29:49.212Z,4
2022-08-03T03:30:58.389Z,10
2022-08-03T03:32:07.562Z,32
2022-08-03T03:33:16.727Z,16
2022-08-03T03:34:25.913Z,8
2022-08-03T03:35:34.099Z,8
2022-08-03T03:36:43.263Z,17
2022-08-03T03:37:52.442Z,26
2022-08-03T03:39:01.611Z,32
2022-08-03T03:40:10.792Z,33
2022-08-03T03:41:19.954Z,38
2022-08-03T03:42:29.128Z,39
2022-08-03T03:43:38.326Z,49
2022-08-03T03:44:47.473Z,67
2022-08-03T03:45:56.645Z,77
2022-08-03T03:47:05.826Z,95
2022-08-03T03:48:15.001Z,101
2022-08-03T03:49:24.163Z,119
2022-08-03T03:50:33.341Z,129
2022-08-03T03:51:41.521Z,147
2022-08-03T03:52:50.715Z,183
2022-08-03T03:53:58.886Z,180
2022-08-03T03:55:07.079Z,224
2022-08-03T03:56:16.258Z,243
2022-08-03T03:57:24.441Z,257
2022-08-03T03:58:32.636Z,302
2022-08-03T03:59:41.805Z,317
2022-08-03T04:00:50.973Z,352
2022-08-03T04:02:00.165Z,394
2022-08-03T04:03:09.329Z,413
2022-08-03T04:04:18.500Z,449
2022-08-03T04:05:27.672Z,477
2022-08-03T04:06:35.865Z,514
2022-08-03T04:07:45.038Z,542
2022-08-03T04:08:54.213Z,578
2022-08-03T04:10:03.386Z,632
2022-08-03T04:11:12.562Z,656
2022-08-03T04:12:21.730Z,693
2022-08-03T04:13:30.911Z,735
2022-08-03T04:14:40.070Z,776
2022-08-03T04:15:49.240Z,821
2022-08-03T04:16:58.412Z,863
2022-08-03T04:18:07.584Z,896
2022-08-03T04:19:16.776Z,937
2022-08-03T04:20:25.935Z,973
2022-08-03T04:21:35.108Z,1011
2022-08-03T04:22:43.294Z,1019
2022-08-03T04:23:52.501Z,1054
2022-08-03T04:25:01.643Z,1099
2022-08-03T04:26:10.815Z,1134
2022-08-03T04:27:19.988Z,1145
2022-08-03T04:28:29.172Z,1176
2022-08-03T04:29:38.331Z,1227
2022-08-03T04:30:47.501Z,1245
2022-08-03T04:31:56.672Z,1251
2022-08-03T04:33:05.854Z,1270
2022-08-03T04:34:15.023Z,1289
2022-08-03T04:35:24.209Z,1429
2022-08-03T04:36:33.379Z,1687
2022-08-03T04:37:41.562Z,1563
2022-08-03T04:38:50.731Z,1558
2022-08-03T04:39:59.909Z,1549
2022-08-03T04:41:09.081Z,1488
2022-08-03T04:42:18.239Z,1461
2022-08-03T04:44:36.600Z,1666
2022-08-03T04:45:45.772Z,1689
2022-08-03T04:46:54.938Z,1702
2022-08-03T04:48:04.110Z,1734
2022-08-03T04:49:13.292Z,1700
2022-08-03T04:50:22.459Z,1744
2022-08-03T04:51:31.635Z,1781
2022-08-03T04:52:40.800Z,1780
2022-08-03T04:53:48.988Z,1804
2022-08-03T04:54:58.163Z,2034
2022-08-03T04:56:07.346Z,1592
2022-08-03T04:57:16.513Z,1818
2022-08-03T04:58:25.676Z,1842
2022-08-03T04:59:34.857Z,1849
2022-08-03T05:00:44.031Z,1868
2022-08-03T05:01:53.209Z,1912
2022-08-03T05:03:02.375Z,1908
2022-08-03T05:04:11.551Z,1881
2022-08-03T05:05:20.719Z,1876
2022-08-03T05:06:29.894Z,1999
2022-08-03T05:07:39.070Z,2058
2022-08-03T05:08:47.245Z,2042
2022-08-03T05:09:56.425Z,2060
2022-08-03T05:11:05.591Z,2329
2022-08-03T05:12:14.769Z,2668
2022-08-03T05:13:23.944Z,1588
2022-08-03T05:14:33.123Z,1822
2022-08-03T05:15:42.285Z,2207
2022-08-03T05:16:51.475Z,2307
2022-08-03T05:18:00.640Z,2364
2022-08-03T05:19:09.800Z,2403
2022-08-03T05:20:18.981Z,2471
2022-08-03T05:21:28.151Z,2420
2022-08-03T05:22:37.321Z,3609
2022-08-03T05:23:45.519Z,4126
2022-08-03T05:24:54.690Z,1168
2022-08-03T05:26:03.863Z,2611
2022-08-03T05:27:13.027Z,2869
2022-08-03T05:28:22.202Z,2926
2022-08-03T05:29:31.380Z,2942
2022-08-03T05:30:40.558Z,3022
2022-08-03T05:31:49.712Z,3058
2022-08-03T05:32:58.895Z,3119
2022-08-03T05:34:08.083Z,3146
2022-08-03T05:35:17.236Z,3176
2022-08-03T05:36:26.405Z,3256
2022-08-03T05:37:35.577Z,3292
2022-08-03T05:38:43.767Z,3275
2022-08-03T05:39:52.935Z,6022
2022-08-03T05:41:02.109Z,1522
2022-08-03T05:42:11.290Z,2552
2022-08-03T05:43:20.460Z,3661
2022-08-03T05:44:29.630Z,3511
2022-08-03T05:45:38.797Z,3559
2022-08-03T05:46:47.968Z,4519
2022-08-03T05:47:57.149Z,3871
2022-08-03T05:49:06.317Z,3282
2022-08-03T05:50:15.481Z,4821
2022-08-03T05:51:24.659Z,1647
2022-08-03T05:52:33.838Z,3762
2022-08-03T05:53:42.028Z,5372
2022-08-03T05:54:51.201Z,4465
2022-08-03T05:56:00.375Z,4410
2022-08-03T05:57:09.560Z,2056
2022-08-03T05:58:18.713Z,2269
2022-08-03T05:59:27.915Z,5437
2022-08-03T06:00:37.057Z,4811
2022-08-03T06:01:46.244Z,1788
2022-08-03T06:02:55.411Z,4246
2022-08-03T06:04:04.596Z,3840
2022-08-03T06:05:13.752Z,4065
2022-08-03T06:06:22.919Z,5033
2022-08-03T06:07:32.099Z,4400
2022-08-03T06:08:40.293Z,4646
2022-08-03T06:09:49.456Z,4016
2022-08-03T06:10:58.635Z,2515
2022-08-03T06:12:07.809Z,4265
2022-08-03T06:13:16.974Z,3739
2022-08-03T06:14:26.144Z,4435
2022-08-03T06:15:35.316Z,4213
2022-08-03T06:16:44.503Z,4522
2022-08-03T06:17:53.660Z,4098
2022-08-03T06:19:02.838Z,4347
2022-08-03T06:20:12.003Z,5380
2022-08-03T06:21:21.189Z,3444
2022-08-03T06:22:30.356Z,4062
2022-08-03T06:23:38.542Z,4660
2022-08-03T06:24:47.721Z,4856
2022-08-03T06:25:56.890Z,4285
2022-08-03T06:27:06.062Z,4694
2022-08-03T06:29:24.439Z,4331
2022-08-03T06:30:33.575Z,4448
2022-08-03T06:31:42.763Z,5035
2022-08-03T06:32:51.927Z,7872
2022-08-03T06:35:10.269Z,4748
2022-08-03T06:36:19.437Z,4618
2022-08-03T06:37:28.618Z,5821
2022-08-03T06:38:36.799Z,3281
2022-08-03T06:39:45.977Z,4766
2022-08-03T06:40:55.150Z,4717
2022-08-03T06:42:04.371Z,4710
2022-08-03T06:43:13.489Z,4648
2022-08-03T06:44:22.656Z,4515
2022-08-03T06:45:31.858Z,5994
2022-08-03T06:46:40.029Z,7194
2022-08-03T06:47:48.217Z,3637
2022-08-03T06:48:57.400Z,4335
2022-08-03T06:50:05.583Z,4210
2022-08-03T06:51:13.772Z,2018
2022-08-03T06:52:22.938Z,4420
2022-08-03T06:53:32.125Z,4914
2022-08-03T06:54:41.300Z,4895
2022-08-03T06:55:50.461Z,4910
2022-08-03T06:56:59.632Z,6228
2022-08-03T06:58:08.802Z,3863
2022-08-03T06:59:17.974Z,4947
2022-08-03T07:00:27.159Z,4777
2022-08-03T07:01:36.346Z,5248
2022-08-03T07:02:45.494Z,6188
2022-08-03T07:03:54.666Z,3864
2022-08-03T07:05:03.837Z,4492
2022-08-03T07:06:12.028Z,8566
2022-08-03T07:07:21.208Z,1824
2022-08-03T07:08:30.372Z,5263
2022-08-03T07:09:39.539Z,5291
2022-08-03T07:10:48.734Z,5342
2022-08-03T07:11:57.892Z,5313
2022-08-03T07:13:07.087Z,5336
2022-08-03T07:14:16.248Z,5342
2022-08-03T07:15:25.421Z,5444
2022-08-03T07:16:34.580Z,5311
2022-08-03T07:17:43.756Z,5279
2022-08-03T07:18:52.919Z,5223
2022-08-03T07:20:02.091Z,5346
2022-08-03T07:21:10.285Z,5788
2022-08-03T07:22:19.459Z,4909
2022-08-03T07:23:28.631Z,5393
2022-08-03T07:24:37.803Z,5342
2022-08-03T07:25:46.988Z,5838
2022-08-03T07:26:56.147Z,5076
2022-08-03T07:28:05.328Z,5908
2022-08-03T07:29:14.498Z,4859
2022-08-03T07:30:23.671Z,5695
2022-08-03T07:31:32.853Z,6139
2022-08-03T07:32:42.019Z,4203
2022-08-03T07:33:51.190Z,5233
2022-08-03T07:35:00.374Z,5530
2022-08-03T07:36:08.561Z,5821
2022-08-03T07:37:16.735Z,6109
2022-08-03T07:38:24.931Z,4952
2022-08-03T07:39:33.122Z,6732
2022-08-03T07:40:42.294Z,4354
2022-08-03T07:41:51.478Z,5769
2022-08-03T07:43:00.642Z,5740
2022-08-03T07:44:09.831Z,5846
2022-08-03T07:45:18.979Z,5914
2022-08-03T07:46:28.160Z,6926
2022-08-03T07:47:37.334Z,4824
2022-08-03T07:48:46.502Z,6202
2022-08-03T07:49:55.670Z,4430
2022-08-03T07:51:04.852Z,5287
2022-08-03T07:52:14.023Z,5634
2022-08-03T07:53:23.199Z,5817
2022-08-03T07:54:31.379Z,6934
2022-08-03T07:55:40.556Z,6690
2022-08-03T07:56:49.721Z,5376
2022-08-03T07:57:57.918Z,4523
2022-08-03T07:59:07.093Z,5012
2022-08-03T08:00:16.259Z,8116
2022-08-03T08:01:25.438Z,2747
2022-08-03T08:02:33.639Z,6100
2022-08-03T08:03:41.819Z,5867
2022-08-03T08:04:50.991Z,6139
2022-08-03T08:06:00.188Z,6299
2022-08-03T08:07:09.337Z,6066
2022-08-03T08:08:18.522Z,6081
2022-08-03T08:09:27.680Z,11432
2022-08-03T08:10:36.853Z,3358
2022-08-03T08:11:46.029Z,4246
2022-08-03T08:12:55.201Z,7100
2022-08-03T08:14:04.377Z,6105
2022-08-03T08:15:13.546Z,5849
2022-08-03T08:16:22.717Z,6429
2022-08-03T08:17:31.892Z,4663
2022-08-03T08:18:41.074Z,6582
2022-08-03T08:19:49.255Z,6460
2022-08-03T08:20:57.449Z,6887
2022-08-03T08:22:06.622Z,7341
2022-08-03T08:23:15.802Z,6591
2022-08-03T08:24:24.968Z,6848
2022-08-03T08:25:34.137Z,8224
2022-08-03T08:26:43.310Z,6192
2022-08-03T08:27:52.482Z,6935
2022-08-03T08:29:01.675Z,6828
2022-08-03T08:30:10.834Z,6937
2022-08-03T08:31:20.005Z,4658
2022-08-03T08:32:29.174Z,4408
2022-08-03T08:33:38.352Z,8053
2022-08-03T08:34:47.520Z,4244
2022-08-03T08:35:55.708Z,6121
2022-08-03T08:37:04.882Z,7810
2022-08-03T08:38:14.051Z,6955
2022-08-03T08:39:23.228Z,7897
2022-08-03T08:40:32.416Z,5948
2022-08-03T08:41:41.570Z,7427
2022-08-03T08:42:50.742Z,5635
2022-08-03T08:43:58.945Z,6661
2022-08-03T08:45:07.132Z,6139
2022-08-03T08:46:16.302Z,6646
2022-08-03T08:47:24.490Z,6306
2022-08-03T08:48:32.682Z,6865
2022-08-03T08:49:41.853Z,6407
2022-08-03T08:50:51.019Z,5463
2022-08-03T08:52:00.208Z,7486
2022-08-03T08:53:09.367Z,7836
2022-08-03T08:54:18.550Z,5090
2022-08-03T08:55:27.719Z,8459
2022-08-03T08:56:36.882Z,7880
2022-08-03T08:57:46.074Z,4388
2022-08-03T08:58:55.229Z,7486
2022-08-03T09:00:04.407Z,8134
2022-08-03T09:01:13.579Z,6233
2022-08-03T09:02:22.759Z,9752
2022-08-03T09:03:30.943Z,6637
2022-08-03T09:04:40.124Z,9072
2022-08-03T09:05:49.288Z,5149
2022-08-03T09:06:58.465Z,4316
2022-08-03T09:08:07.648Z,8001
2022-08-03T09:09:16.803Z,9381
2022-08-03T09:10:25.978Z,7074
2022-08-03T09:11:35.155Z,7612
2022-08-03T09:12:44.314Z,5068
2022-08-03T09:13:53.492Z,4061
2022-08-03T09:15:02.682Z,5784
2022-08-03T09:16:11.845Z,6960
2022-08-03T09:17:21.016Z,7889
2022-08-03T09:18:29.208Z,8420
2022-08-03T09:19:38.374Z,7867
2022-08-03T09:20:47.554Z,6870
2022-08-03T09:21:56.726Z,6657
2022-08-03T09:23:05.908Z,8559
2022-08-03T09:24:15.072Z,6820
2022-08-03T09:25:24.238Z,6498
2022-08-03T09:26:33.429Z,5647
2022-08-03T09:27:42.586Z,4671
2022-08-03T09:28:51.753Z,5910
2022-08-03T09:30:00.936Z,4283
2022-08-03T09:31:10.103Z,9061
2022-08-03T09:32:19.310Z,4772
2022-08-03T09:33:27.460Z,11053
2022-08-03T09:34:36.639Z,3686
2022-08-03T09:35:45.813Z,5179
2022-08-03T09:36:55.003Z,7274
2022-08-03T09:38:04.179Z,6643
2022-08-03T09:39:13.355Z,8774
2022-08-03T09:40:22.512Z,10050
2022-08-03T09:41:31.678Z,8111
2022-08-03T09:42:40.850Z,7283
2022-08-03T09:43:50.019Z,7413
2022-08-03T09:44:59.190Z,9941
2022-08-03T09:46:08.376Z,9182
2022-08-03T09:47:16.568Z,9001
2022-08-03T09:48:24.738Z,8738
2022-08-03T09:49:33.918Z,8161
2022-08-03T09:50:43.089Z,11353
2022-08-03T09:51:52.281Z,5441
2022-08-03T09:53:01.441Z,9082
2022-08-03T09:54:10.611Z,4383
2022-08-03T09:55:19.775Z,8237
2022-08-03T09:56:27.979Z,10262
2022-08-03T09:57:36.180Z,8677
2022-08-03T09:58:45.348Z,3482
2022-08-03T09:59:54.503Z,11112
2022-08-03T10:01:03.713Z,7157
2022-08-03T10:02:12.854Z,7373
2022-08-03T10:03:22.027Z,6320
2022-08-03T10:04:31.200Z,7984
2022-08-03T10:05:40.379Z,5155
2022-08-03T10:06:49.559Z,3968
2022-08-03T10:07:58.736Z,12852
2022-08-03T10:09:07.888Z,7173
2022-08-03T10:10:17.064Z,2919
2022-08-03T10:11:26.235Z,13759
2022-08-03T10:12:34.436Z,3564
2022-08-03T10:13:43.600Z,12703
2022-08-03T10:14:52.770Z,7528
2022-08-03T10:16:01.947Z,7703
2022-08-03T10:17:11.115Z,7266
2022-08-03T10:18:20.283Z,3326
2022-08-03T10:19:29.471Z,14242
2022-08-03T10:20:38.629Z,7906
2022-08-03T10:21:47.805Z,10931
2022-08-03T10:22:56.969Z,9437
2022-08-03T10:24:06.145Z,8651
2022-08-03T10:25:15.329Z,8488
2022-08-03T10:26:24.495Z,6343
2022-08-03T10:27:32.687Z,8127
2022-08-03T10:28:41.859Z,16174
2022-08-03T10:29:51.027Z,8848
2022-08-03T10:31:00.197Z,5934
2022-08-03T10:32:09.375Z,12414
2022-08-03T10:33:18.548Z,9592
2022-08-03T10:34:27.731Z,18103
2022-08-03T10:35:36.890Z,8678
2022-08-03T10:36:46.069Z,10658
2022-08-03T10:37:55.243Z,5110
2022-08-03T10:39:04.468Z,12456
2022-08-03T10:40:13.575Z,9116
2022-08-03T10:41:22.759Z,13632
2022-08-03T10:42:31.927Z,3589
2022-08-03T10:43:40.112Z,17032
2022-08-03T10:44:49.297Z,4561
2022-08-03T10:45:58.467Z,9407
2022-08-03T10:47:07.647Z,14128
2022-08-03T10:48:16.810Z,7457
2022-08-03T10:49:25.981Z,15822
2022-08-03T10:50:35.175Z,12959
2022-08-03T10:52:53.502Z,11048
2022-08-03T10:54:02.670Z,12453
2022-08-03T10:55:11.838Z,8279
2022-08-03T10:56:21.020Z,8730
2022-08-03T10:57:30.191Z,12665
2022-08-03T10:58:38.390Z,12409
2022-08-03T10:59:47.558Z,6098
2022-08-03T11:00:56.728Z,11231
2022-08-03T11:02:05.902Z,6443
2022-08-03T11:03:15.078Z,8143
2022-08-03T11:04:24.241Z,11956
2022-08-03T11:05:33.417Z,8074
2022-08-03T11:06:42.582Z,15430
2022-08-03T11:07:51.757Z,9084
2022-08-03T11:09:00.924Z,8914
2022-08-03T11:10:10.126Z,11658
2022-08-03T11:11:19.302Z,5887
2022-08-03T11:12:28.456Z,9989
2022-08-03T11:13:36.645Z,9733
2022-08-03T11:14:45.814Z,9064
2022-08-03T11:15:54.991Z,10409
2022-08-03T11:17:04.166Z,9316
2022-08-03T11:18:13.359Z,13840
2022-08-03T11:19:22.508Z,7640
2022-08-03T11:20:31.668Z,5850
2022-08-03T11:21:40.869Z,6688
2022-08-03T11:22:50.032Z,10285
2022-08-03T11:23:59.203Z,10089
2022-08-03T11:25:08.375Z,9999
2022-08-03T11:26:17.538Z,9940
2022-08-03T11:27:26.727Z,11339
2022-08-03T11:28:34.932Z,9257
2022-08-03T11:29:44.080Z,8342
2022-08-03T11:30:53.241Z,9461
2022-08-03T11:32:02.419Z,9305
2022-08-03T11:33:11.591Z,9948
2022-08-03T11:34:20.755Z,10224
2022-08-03T11:35:29.932Z,11395
2022-08-03T11:36:39.104Z,10165
2022-08-03T11:37:48.310Z,9136
2022-08-03T11:38:57.450Z,8172
2022-08-03T11:40:06.631Z,11736
2022-08-03T11:41:15.803Z,8947
2022-08-03T11:42:24.975Z,4861
2022-08-03T11:43:33.168Z,11172
2022-08-03T11:44:41.359Z,12888
2022-08-03T11:45:50.535Z,10910
2022-08-03T11:46:58.733Z,7357
2022-08-03T11:48:06.936Z,6870
2022-08-03T11:49:15.124Z,6700
2022-08-03T11:50:24.284Z,2845
2022-08-03T11:51:33.451Z,13269
2022-08-03T11:52:42.633Z,8794
2022-08-03T11:53:51.813Z,8091
2022-08-03T11:55:00.959Z,9953
2022-08-03T11:56:10.141Z,10926
2022-08-03T11:57:19.310Z,10587
2022-08-03T11:58:28.487Z,15745
2022-08-03T11:59:37.685Z,14204
2022-08-03T12:00:46.831Z,13491
2022-08-03T12:01:56.001Z,15047
2022-08-03T12:03:05.185Z,13553
2022-08-03T12:04:13.376Z,11849
2022-08-03T12:05:22.549Z,10075
2022-08-03T12:06:31.708Z,9913
2022-08-03T12:07:40.881Z,9987
2022-08-03T12:08:50.060Z,11615
2022-08-03T12:09:59.227Z,8408
2022-08-03T12:11:07.437Z,7762
2022-08-03T12:12:15.607Z,9267
2022-08-03T12:13:24.786Z,10776
2022-08-03T12:14:32.983Z,8198
2022-08-03T12:15:41.178Z,10632
2022-08-03T12:16:50.336Z,6052
2022-08-03T12:17:59.521Z,10297
2022-08-03T12:19:08.705Z,7486
2022-08-03T12:20:17.856Z,12636
2022-08-03T12:21:27.042Z,17117
2022-08-03T12:22:36.218Z,11600
2022-08-03T12:23:45.378Z,17256
2022-08-03T12:24:54.556Z,10457
2022-08-03T12:26:03.734Z,10201
2022-08-03T12:27:12.933Z,12951
2022-08-03T12:28:22.063Z,15055
2022-08-03T12:29:31.251Z,14402
2022-08-03T12:30:39.426Z,14368
2022-08-03T12:31:48.613Z,18713
2022-08-03T12:32:57.786Z,10725
2022-08-03T12:34:06.951Z,13798
2022-08-03T12:35:16.117Z,11494
2022-08-03T12:36:25.292Z,13100
2022-08-03T12:37:34.479Z,13013
2022-08-03T12:38:43.645Z,13452
2022-08-03T12:39:52.826Z,13866
2022-08-03T12:41:01.985Z,14403
2022-08-03T12:42:11.163Z,15313
2022-08-03T12:43:20.329Z,13443
2022-08-03T12:44:29.507Z,13990
2022-08-03T12:45:37.697Z,14988
2022-08-03T12:46:46.873Z,14970
2022-08-03T12:47:56.046Z,15389
2022-08-03T12:49:05.211Z,15161
2022-08-03T12:50:14.391Z,16440
2022-08-03T12:51:23.563Z,22497
2022-08-03T12:52:32.735Z,17733
2022-08-03T12:53:41.903Z,18194
2022-08-03T12:54:51.081Z,20526
2022-08-03T12:56:00.256Z,14037
2022-08-03T12:57:09.444Z,26968
2022-08-03T12:58:18.588Z,15012
2022-08-03T12:59:27.763Z,13399
2022-08-03T13:00:35.957Z,15580
2022-08-03T13:01:45.133Z,21880
2022-08-03T13:02:54.317Z,23113
2022-08-03T13:04:03.479Z,18826
2022-08-03T13:05:12.658Z,20978
2022-08-03T13:06:21.837Z,21842
2022-08-03T13:07:30.995Z,22370
2022-08-03T13:08:40.193Z,26185
2022-08-03T13:09:49.359Z,26320
2022-08-03T13:10:58.514Z,27933
2022-08-03T13:12:07.686Z,25925
2022-08-03T13:13:16.872Z,14523
2022-08-03T13:14:26.046Z,19797
2022-08-03T13:15:34.225Z,11475
2022-08-03T13:16:43.411Z,12136
2022-08-03T13:17:52.603Z,57352
2022-08-03T13:19:01.754Z,62968
2022-08-03T13:20:10.916Z,57039
2022-08-03T13:21:20.101Z,36999
2022-08-03T13:22:29.271Z,24848
2022-08-03T13:23:38.438Z,19839
2022-08-03T13:24:47.610Z,19086
2022-08-03T13:25:56.775Z,18804
2022-08-03T13:27:05.947Z,19024
2022-08-03T13:28:15.161Z,18693
2022-08-03T13:29:24.301Z,17508
2022-08-03T13:31:42.643Z,17808
2022-08-03T13:32:50.833Z,18730
2022-08-03T13:34:00.003Z,16650
2022-08-03T13:35:09.186Z,17223
2022-08-03T13:36:18.359Z,39548
2022-08-03T13:37:27.539Z,4745
2022-08-03T13:38:36.736Z,7261
2022-08-03T13:39:45.913Z,7976
2022-08-03T13:40:55.091Z,9660
2022-08-03T13:42:04.222Z,63234
2022-08-03T13:43:13.413Z,5264
2022-08-03T13:44:22.577Z,56651
2022-08-03T13:45:31.764Z,47578
2022-08-03T13:46:40.925Z,57509
2022-08-03T13:47:49.133Z,55871
2022-08-03T13:48:58.287Z,41188
2022-08-03T13:50:07.458Z,42904
2022-08-03T13:51:15.653Z,31637
2022-08-03T13:52:23.860Z,56768
2022-08-03T13:53:32.038Z,20435
2022-08-03T13:54:40.230Z,3874
2022-08-03T13:55:49.391Z,36954
2022-08-03T13:56:58.569Z,4708
2022-08-03T13:58:07.793Z,56110
2022-08-03T13:59:16.912Z,55905
2022-08-03T14:00:26.086Z,64801
2022-08-03T14:01:35.255Z,3378
2022-08-03T14:02:44.439Z,17773
2022-08-03T14:03:53.609Z,18053
2022-08-03T14:05:02.783Z,25432
2022-08-03T14:06:11.973Z,19701
2022-08-03T14:07:21.127Z,15239
2022-08-03T14:08:30.319Z,23392
2022-08-03T14:09:38.495Z,11144
2022-08-03T14:10:47.671Z,61330
2022-08-03T14:11:56.834Z,17889
2022-08-03T14:13:06.013Z,24823
2022-08-03T14:14:15.181Z,19918
2022-08-03T14:15:24.353Z,20983
2022-08-03T14:16:33.527Z,18163
2022-08-03T14:17:42.697Z,19808
2022-08-03T14:18:51.885Z,26321
2022-08-03T14:20:01.040Z,11737
2022-08-03T14:21:10.224Z,59449
2022-08-03T14:22:19.388Z,20985
2022-08-03T14:23:28.565Z,23799
2022-08-03T14:24:36.747Z,16037
2022-08-03T14:25:45.932Z,31917
2022-08-03T14:26:55.096Z,29981
2022-08-03T14:28:04.263Z,27432
2022-08-03T14:29:13.448Z,20722
2022-08-03T14:30:22.628Z,21674
2022-08-03T14:31:31.795Z,25695
2022-08-03T14:32:39.989Z,24067
2022-08-03T14:33:49.175Z,29038
2022-08-03T14:34:57.362Z,29249
2022-08-03T14:36:05.546Z,26360
2022-08-03T14:37:14.711Z,20552
2022-08-03T14:38:23.897Z,30362
2022-08-03T14:39:33.065Z,29492
2022-08-03T14:40:42.252Z,23969
2022-08-03T14:41:51.402Z,14527
2022-08-03T14:43:00.586Z,32707
2022-08-03T14:44:09.763Z,14791
2022-08-03T14:45:18.936Z,32280
2022-08-03T14:46:28.101Z,24985
2022-08-03T14:47:37.280Z,23584
2022-08-03T14:48:46.453Z,27599
2022-08-03T14:50:28.651Z,31155
2022-08-03T14:51:03.818Z,24636
2022-08-03T14:52:12.988Z,27484
2022-08-03T14:53:22.163Z,36303
2022-08-03T14:54:31.334Z,30941
2022-08-03T14:55:40.509Z,28339
2022-08-03T14:56:49.682Z,28924
2022-08-03T14:57:58.856Z,35467
2022-08-03T14:59:08.041Z,34814
2022-08-03T15:00:17.193Z,30837
2022-08-03T15:01:26.378Z,26390
2022-08-03T15:02:35.556Z,31420
2022-08-03T15:03:44.714Z,33825
2022-08-03T15:04:53.889Z,33032
2022-08-03T15:06:02.082Z,33101
2022-08-03T15:07:11.260Z,34559
2022-08-03T15:08:20.455Z,32723
2022-08-03T15:09:29.611Z,26813
2022-08-03T15:10:38.767Z,27148
2022-08-03T15:11:47.945Z,29038
2022-08-03T15:12:57.113Z,32574
2022-08-03T15:14:06.301Z,33996
2022-08-03T15:15:15.454Z,30744
2022-08-03T15:16:24.645Z,29827
2022-08-03T15:17:33.834Z,33772
2022-08-03T15:18:42.991Z,35351
2022-08-03T15:19:52.162Z,34824
2022-08-03T15:21:00.381Z,28343
2022-08-03T15:22:09.526Z,32279
2022-08-03T15:23:18.700Z,33958
2022-08-03T15:24:27.877Z,29244
2022-08-03T15:25:37.031Z,30456
2022-08-03T15:26:46.214Z,31142
2022-08-03T15:27:55.378Z,27510
2022-08-03T15:29:04.553Z,31338
2022-08-03T15:30:13.735Z,35147
2022-08-03T15:31:22.909Z,29440
2022-08-03T15:32:32.077Z,28559
2022-08-03T15:33:41.255Z,31184
2022-08-03T15:34:50.440Z,26653
2022-08-03T15:35:59.620Z,28278
2022-08-03T15:37:07.799Z,36076
2022-08-03T15:38:16.975Z,36606
2022-08-03T15:40:35.324Z,30104